Time;durP1;ratioP1;P1;durP2;ratioP2;P2;SDS_P1;SDS_P2;PMS_P1;PMS_P2;Temp;Humidity;BMP_temperature;BMP_pressure;BME280_temperature;BME280_humidity;BME280_pressure;Samples;Min_cycle;Max_cycle;Signal;HPM_P1;HPM_P2
2021/07/04 00:00:38;;;;;;;9.52;7.85;;;23.20;55.40;;;;;;5034728;28;20182;-83
2021/07/04 00:03:05;;;;;;;8.88;7.95;;;23.20;55.40;;;;;;5071753;28;20170;-85
2021/07/04 00:05:35;;;;;;;8.63;7.72;;;23.20;55.40;;;;;;5051395;28;20182;-82
2021/07/04 00:08:03;;;;;;;9.70;8.00;;;23.20;55.50;;;;;;5051504;28;20221;-82
2021/07/04 00:10:32;;;;;;;9.82;8.82;;;23.10;55.40;;;;;;5051176;28;20178;-84
2021/07/04 00:12:58;;;;;;;9.65;8.43;;;23.20;55.50;;;;;;5051378;28;20181;-83
2021/07/04 00:15:26;;;;;;;9.73;8.18;;;23.10;55.40;;;;;;5051780;28;20640;-84
2021/07/04 00:17:53;;;;;;;8.98;8.05;;;23.10;55.50;;;;;;5051313;28;20185;-83
2021/07/04 00:20:21;;;;;;;9.10;8.20;;;23.10;55.50;;;;;;5051199;28;20186;-84
2021/07/04 00:22:48;;;;;;;9.15;8.13;;;23.20;55.50;;;;;;5051293;28;20264;-84
2021/07/04 00:25:16;;;;;;;9.57;8.32;;;23.20;55.60;;;;;;5050952;28;20185;-84
2021/07/04 00:27:43;;;;;;;9.02;8.13;;;23.10;55.50;;;;;;5050829;28;20185;-83
2021/07/04 00:30:11;;;;;;;11.25;8.98;;;23.20;55.60;;;;;;5050635;28;20218;-84
2021/07/04 00:32:38;;;;;;;9.10;8.18;;;23.10;55.60;;;;;;5051188;28;20675;-83
2021/07/04 00:35:06;;;;;;;9.13;8.23;;;23.10;55.50;;;;;;5050679;28;20222;-84
2021/07/04 00:37:33;;;;;;;9.50;8.50;;;23.10;55.50;;;;;;5034375;28;20239;-83
2021/07/04 00:40:00;;;;;;;9.07;8.18;;;23.10;55.60;;;;;;5051120;28;20186;-83
2021/07/04 00:42:26;;;;;;;9.02;8.13;;;23.10;55.60;;;;;;5051071;28;20189;-84
2021/07/04 00:44:53;;;;;;;9.80;8.73;;;23.10;55.60;;;;;;5051614;28;20162;-84
2021/07/04 00:47:21;;;;;;;9.32;8.43;;;23.10;55.60;;;;;;5050867;28;20182;-83
2021/07/04 00:49:48;;;;;;;9.27;8.35;;;23.10;55.70;;;;;;5050827;28;20186;-83
2021/07/04 00:52:14;;;;;;;8.65;7.75;;;23.10;55.70;;;;;;5067418;28;20178;-85
2021/07/04 00:54:42;;;;;;;9.07;8.18;;;23.10;55.70;;;;;;5091793;28;20185;-83
2021/07/04 00:57:09;;;;;;;9.20;8.10;;;23.10;55.70;;;;;;5090813;28;20183;-83
2021/07/04 00:59:36;;;;;;;9.75;8.75;;;23.10;55.70;;;;;;5074390;28;20183;-84
2021/07/04 01:02:04;;;;;;;10.27;8.65;;;23.10;55.70;;;;;;5074069;28;20238;-83
2021/07/04 01:04:31;;;;;;;9.45;8.25;;;23.10;55.70;;;;;;5076323;28;20229;-83
2021/07/04 01:06:58;;;;;;;9.25;7.93;;;23.10;55.70;;;;;;5077850;28;20574;-83
2021/07/04 01:09:25;;;;;;;9.93;8.80;;;23.10;55.70;;;;;;5077617;28;20183;-84
2021/07/04 01:11:52;;;;;;;8.75;7.85;;;23.00;55.70;;;;;;5111455;27;20709;-83
2021/07/04 01:14:17;;;;;;;9.52;8.52;;;23.00;55.70;;;;;;5094622;28;20208;-83
2021/07/04 01:16:45;;;;;;;8.80;7.80;;;23.10;56.40;;;;;;5095310;28;20171;-83
2021/07/04 01:19:13;;;;;;;9.55;8.32;;;23.10;55.70;;;;;;5094791;28;20260;-85
2021/07/04 01:21:42;;;;;;;9.45;8.00;;;23.10;55.70;;;;;;5094734;28;20236;-84
2021/07/04 01:24:10;;;;;;;9.18;8.18;;;23.10;55.70;;;;;;5077835;28;20185;-84
2021/07/04 01:26:36;;;;;;;8.85;7.95;;;23.10;55.70;;;;;;5094579;28;20195;-83
2021/07/04 01:29:03;;;;;;;9.13;8.23;;;23.10;55.70;;;;;;5095219;28;20236;-83
2021/07/04 01:31:31;;;;;;;9.40;8.38;;;23.10;55.70;;;;;;5111341;28;20269;-84
2021/07/04 01:33:58;;;;;;;8.90;8.00;;;23.10;55.80;;;;;;5077482;28;20176;-83
2021/07/04 01:36:25;;;;;;;9.50;8.50;;;23.10;55.70;;;;;;5094181;28;20312;-84
2021/07/04 01:38:53;;;;;;;8.95;8.05;;;23.00;55.70;;;;;;5077479;28;20237;-83
2021/07/04 01:41:20;;;;;;;8.95;8.05;;;23.10;55.80;;;;;;5077406;28;20177;-82
2021/07/04 01:43:47;;;;;;;9.30;8.40;;;23.00;55.70;;;;;;5094119;27;20261;-83
2021/07/04 01:46:15;;;;;;;9.40;8.40;;;23.00;55.70;;;;;;5094229;28;20233;-83
2021/07/04 01:48:43;;;;;;;9.40;8.40;;;23.10;55.80;;;;;;5094163;28;20268;-83
2021/07/04 01:51:10;;;;;;;10.27;8.00;;;23.10;55.80;;;;;;5094062;28;20185;-82
2021/07/04 01:53:37;;;;;;;9.20;8.07;;;23.10;55.80;;;;;;5107518;28;20225;-84
2021/07/04 01:56:07;;;;;;;9.10;8.18;;;23.10;55.70;;;;;;5074323;28;20579;-84
2021/07/04 01:58:35;;;;;;;9.02;8.13;;;23.00;55.70;;;;;;5090212;28;20189;-85
2021/07/04 02:01:04;;;;;;;9.77;8.40;;;23.10;55.70;;;;;;5073566;28;20212;-83
2021/07/04 02:03:31;;;;;;;9.32;8.43;;;23.10;55.70;;;;;;5090332;28;20231;-84
2021/07/04 02:05:59;;;;;;;9.35;8.20;;;23.10;55.70;;;;;;5073726;28;20185;-84
2021/07/04 02:08:26;;;;;;;8.98;8.00;;;23.00;55.70;;;;;;5090412;28;20191;-84
2021/07/04 02:10:53;;;;;;;9.02;8.10;;;23.10;55.70;;;;;;5107132;28;20235;-84
2021/07/04 02:13:22;;;;;;;9.23;7.82;;;23.10;55.70;;;;;;5089983;28;20221;-83
2021/07/04 02:15:50;;;;;;;9.05;8.15;;;23.10;55.70;;;;;;5089363;28;20270;-82
2021/07/04 02:18:20;;;;;;;9.02;8.10;;;23.10;55.70;;;;;;5090021;28;20193;-82
2021/07/04 02:20:50;;;;;;;8.70;7.75;;;23.10;55.70;;;;;;5090236;28;20199;-83
2021/07/04 02:23:21;;;;;;;8.77;7.88;;;23.10;55.60;;;;;;5106672;28;20181;-82
2021/07/04 02:25:50;;;;;;;9.05;8.15;;;23.10;55.70;;;;;;5073009;28;20189;-83
2021/07/04 02:28:20;;;;;;;8.10;7.30;;;23.10;55.70;;;;;;5089907;28;20181;-81
2021/07/04 02:30:46;;;;;;;8.95;8.05;;;23.10;55.60;;;;;;5072838;28;20211;-83
2021/07/04 02:33:15;;;;;;;10.07;8.38;;;23.10;55.60;;;;;;5090456;28;20260;-82
2021/07/04 02:35:46;;;;;;;9.95;8.52;;;23.00;55.60;;;;;;5089610;28;20227;-84
2021/07/04 02:38:14;;;;;;;8.68;7.78;;;23.10;55.70;;;;;;5072886;28;20261;-84
2021/07/04 02:40:42;;;;;;;8.93;8.02;;;23.10;55.60;;;;;;5106846;28;20181;-81
2021/07/04 02:43:10;;;;;;;9.02;8.07;;;23.10;55.70;;;;;;5072621;28;20624;-84
2021/07/04 02:45:38;;;;;;;9.52;8.20;;;23.10;55.60;;;;;;5106540;28;20215;-83
2021/07/04 02:48:07;;;;;;;8.60;7.72;;;23.10;55.60;;;;;;5089295;28;20705;-82
2021/07/04 02:50:35;;;;;;;8.55;7.65;;;23.20;55.60;;;;;;5089360;28;20177;-81
2021/07/04 02:53:00;;;;;;;9.65;8.27;;;23.10;55.60;;;;;;5089186;28;20323;-83
2021/07/04 02:55:28;;;;;;;10.07;8.52;;;23.10;56.20;;;;;;5090203;28;20700;-83
2021/07/04 02:57:53;;;;;;;9.45;8.13;;;23.10;55.50;;;;;;5089407;28;20181;-82
2021/07/04 03:00:22;;;;;;;9.32;8.38;;;23.20;55.60;;;;;;5106950;28;20184;-81
2021/07/04 03:02:49;;;;;;;9.27;8.27;;;23.10;55.60;;;;;;5106048;28;20177;-84
2021/07/04 03:05:17;;;;;;;8.77;7.88;;;23.20;55.60;;;;;;5072174;28;20181;-82
2021/07/04 03:07:44;;;;;;;10.48;8.32;;;23.20;55.50;;;;;;5089028;28;20209;-83
2021/07/04 03:10:15;;;;;;;9.38;8.30;;;23.10;55.40;;;;;;5071877;28;20177;-84
2021/07/04 03:12:42;;;;;;;9.10;8.07;;;23.20;55.50;;;;;;5072069;28;20250;-84
2021/07/04 03:15:09;;;;;;;9.27;8.38;;;23.20;55.60;;;;;;5105972;28;20220;-82
2021/07/04 03:17:36;;;;;;;9.30;8.32;;;23.20;55.50;;;;;;5089647;28;20182;-82
2021/07/04 03:20:07;;;;;;;8.80;7.95;;;23.20;55.50;;;;;;5105597;28;20178;-82
2021/07/04 03:22:34;;;;;;;8.88;7.97;;;23.20;55.50;;;;;;5088539;28;20203;-81
2021/07/04 03:25:01;;;;;;;8.85;7.95;;;23.30;55.50;;;;;;5088865;28;20197;-82
2021/07/04 03:27:30;;;;;;;9.68;8.38;;;23.20;55.40;;;;;;5088513;28;20547;-80
2021/07/04 03:29:58;;;;;;;8.32;7.53;;;23.20;55.30;;;;;;5071702;28;20177;-82
2021/07/04 03:32:27;;;;;;;8.77;7.88;;;23.20;55.40;;;;;;5105877;28;20224;-82
2021/07/04 03:34:55;;;;;;;8.35;7.55;;;23.30;55.40;;;;;;5106557;28;20209;-83
2021/07/04 03:37:23;;;;;;;9.07;8.13;;;23.30;55.40;;;;;;5089788;28;20207;-85
2021/07/04 03:39:51;;;;;;;9.88;8.55;;;23.20;55.40;;;;;;5089759;28;20181;-82
2021/07/04 03:42:18;;;;;;;8.95;8.05;;;23.30;55.40;;;;;;5106657;28;20546;-82
2021/07/04 03:44:46;;;;;;;9.15;8.25;;;23.20;55.40;;;;;;5089486;28;20224;-83
2021/07/04 03:47:14;;;;;;;8.80;7.90;;;23.20;55.40;;;;;;5106383;28;20177;-83
2021/07/04 03:49:41;;;;;;;9.38;7.53;;;23.20;55.40;;;;;;5089121;28;20181;-83
2021/07/04 03:52:09;;;;;;;8.70;7.75;;;23.30;55.40;;;;;;5088982;28;20185;-83
2021/07/04 03:54:37;;;;;;;9.40;8.07;;;23.30;55.40;;;;;;5071844;28;20274;-81
2021/07/04 03:57:21;;;;;;;9.15;8.27;;;23.20;55.30;;;;;;5105593;28;20197;-82
2021/07/04 03:59:51;;;;;;;8.95;7.95;;;23.30;55.30;;;;;;5072572;28;20223;-81
2021/07/04 04:02:18;;;;;;;8.68;7.78;;;23.30;55.30;;;;;;5105191;28;20209;-83
2021/07/04 04:04:45;;;;;;;9.30;7.97;;;23.30;55.20;;;;;;5105232;28;20216;-81
2021/07/04 04:07:13;;;;;;;8.50;7.70;;;23.40;55.20;;;;;;5105095;28;20219;-82
2021/07/04 04:09:41;;;;;;;8.90;7.97;;;23.30;55.40;;;;;;5087869;28;20715;-84
2021/07/04 04:12:09;;;;;;;8.70;7.80;;;23.30;55.30;;;;;;5104486;28;20188;-81
2021/07/04 04:14:38;;;;;;;8.93;8.02;;;23.30;55.30;;;;;;5087784;28;20632;-84
2021/07/04 04:17:06;;;;;;;8.95;8.05;;;23.30;55.30;;;;;;5104848;28;20185;-81
2021/07/04 04:19:34;;;;;;;10.02;8.65;;;23.30;55.20;;;;;;5070888;28;20189;-82
2021/07/04 04:22:03;;;;;;;8.77;7.82;;;23.30;55.30;;;;;;5105130;28;20189;-82
2021/07/04 04:24:31;;;;;;;8.45;7.55;;;23.40;55.30;;;;;;5071079;28;20196;-81
2021/07/04 04:26:57;;;;;;;9.02;8.13;;;23.30;55.20;;;;;;5088055;28;20224;-83
2021/07/04 04:29:22;;;;;;;8.55;7.65;;;23.30;55.30;;;;;;5071943;28;20200;-85
2021/07/04 04:31:50;;;;;;;9.05;8.10;;;23.30;55.30;;;;;;5073283;28;20157;-83
2021/07/04 04:34:19;;;;;;;8.65;7.85;;;23.30;55.20;;;;;;5070962;28;20205;-85
2021/07/04 04:36:47;;;;;;;9.23;8.20;;;23.30;55.30;;;;;;5105084;28;20215;-85
2021/07/04 04:39:15;;;;;;;8.50;7.60;;;23.30;55.40;;;;;;5106903;28;20259;-83
2021/07/04 04:41:43;;;;;;;8.55;7.57;;;23.30;55.30;;;;;;5091989;28;20540;-82
2021/07/04 04:44:10;;;;;;;9.15;8.25;;;23.30;55.40;;;;;;5092339;28;20543;-82
2021/07/04 04:46:38;;;;;;;9.35;8.45;;;23.30;56.00;;;;;;5092143;28;20177;-85
2021/07/04 04:49:06;;;;;;;8.70;7.80;;;23.30;55.20;;;;;;5091994;28;20223;-83
2021/07/04 04:51:34;;;;;;;9.23;7.90;;;23.30;55.30;;;;;;5108824;28;20545;-83
2021/07/04 04:54:02;;;;;;;8.80;7.97;;;23.30;55.30;;;;;;5108483;28;20275;-83
2021/07/04 04:56:29;;;;;;;8.90;8.00;;;23.40;55.20;;;;;;5092079;28;20177;-82
2021/07/04 04:58:57;;;;;;;8.50;7.70;;;23.40;55.20;;;;;;5091737;28;20723;-85
2021/07/04 05:01:27;;;;;;;8.52;7.68;;;23.40;55.10;;;;;;5108516;28;20181;-83
2021/07/04 05:03:55;;;;;;;8.68;7.78;;;23.40;55.10;;;;;;5108134;28;20211;-85
2021/07/04 05:06:22;;;;;;;9.02;8.13;;;23.50;55.00;;;;;;5108309;28;20193;-81
2021/07/04 05:08:50;;;;;;;9.23;8.32;;;23.50;55.00;;;;;;5074410;28;20227;-83
2021/07/04 05:11:17;;;;;;;9.05;8.10;;;23.50;55.00;;;;;;5108499;28;20181;-84
2021/07/04 05:13:44;;;;;;;9.32;7.85;;;23.50;54.90;;;;;;5108257;28;20208;-80
2021/07/04 05:16:12;;;;;;;8.98;8.07;;;23.60;54.90;;;;;;5091301;28;20213;-84
2021/07/04 05:18:39;;;;;;;7.88;7.10;;;23.60;55.00;;;;;;5074522;28;20177;-83
2021/07/04 05:21:06;;;;;;;8.40;7.60;;;23.60;54.90;;;;;;5107777;28;20205;-81
2021/07/04 05:23:33;;;;;;;8.73;7.82;;;23.50;54.80;;;;;;5090901;28;20185;-81
2021/07/04 05:26:00;;;;;;;8.75;7.85;;;23.70;54.80;;;;;;5073643;28;20181;-81
2021/07/04 05:28:28;;;;;;;9.15;8.25;;;23.60;54.60;;;;;;5090948;28;20187;-84
2021/07/04 05:30:55;;;;;;;8.82;7.93;;;23.70;54.60;;;;;;5074097;28;20539;-83
2021/07/04 05:33:21;;;;;;;8.68;7.72;;;23.70;54.60;;;;;;5108703;28;20158;-83
2021/07/04 05:35:48;;;;;;;8.88;7.97;;;23.70;54.60;;;;;;5074520;28;20598;-82
2021/07/04 05:38:18;;;;;;;8.90;8.00;;;23.70;54.60;;;;;;5074690;28;20169;-81
2021/07/04 05:40:50;;;;;;;8.30;7.50;;;23.70;54.60;;;;;;5073976;28;20234;-81
2021/07/04 05:43:16;;;;;;;8.40;7.50;;;23.60;54.60;;;;;;5090649;28;20185;-82
2021/07/04 05:45:43;;;;;;;8.57;7.65;;;23.60;54.70;;;;;;5108631;28;20165;-85
2021/07/04 05:48:11;;;;;;;8.70;7.80;;;23.60;54.90;;;;;;5090589;28;20181;-82
2021/07/04 05:50:37;;;;;;;9.30;8.30;;;23.60;54.90;;;;;;5072622;28;20278;-85
2021/07/04 05:53:03;;;;;;;8.40;7.55;;;23.60;54.70;;;;;;5081551;28;20675;-81
2021/07/04 05:55:31;;;;;;;8.48;7.57;;;23.60;54.80;;;;;;5094664;28;20546;-86
2021/07/04 05:57:59;;;;;;;8.82;7.93;;;23.60;55.00;;;;;;5077226;28;20215;-83
2021/07/04 06:00:27;;;;;;;8.18;7.32;;;23.60;55.00;;;;;;5094112;28;20184;-81
2021/07/04 06:02:55;;;;;;;8.70;7.80;;;23.60;54.90;;;;;;5094305;28;20208;-82
2021/07/04 06:05:23;;;;;;;8.70;7.78;;;23.60;54.90;;;;;;5077000;28;20185;-81
2021/07/04 06:07:50;;;;;;;8.35;7.55;;;23.60;54.90;;;;;;5076941;28;20176;-83
2021/07/04 06:10:16;;;;;;;8.50;7.63;;;23.60;54.90;;;;;;5110584;28;20528;-82
2021/07/04 06:12:44;;;;;;;8.38;7.57;;;23.60;54.90;;;;;;5078065;28;20167;-81
2021/07/04 06:15:11;;;;;;;8.10;7.30;;;23.60;54.90;;;;;;5093474;28;20679;-84
2021/07/04 06:17:39;;;;;;;8.18;7.38;;;23.60;54.80;;;;;;5093412;28;20181;-84
2021/07/04 06:20:07;;;;;;;8.80;7.90;;;23.60;55.00;;;;;;5110635;28;20184;-85
2021/07/04 06:22:35;;;;;;;9.05;8.10;;;23.60;54.90;;;;;;5110644;27;20638;-85
2021/07/04 06:25:03;;;;;;;8.52;7.63;;;23.60;55.00;;;;;;5093547;28;20183;-85
2021/07/04 06:27:30;;;;;;;8.88;7.97;;;23.60;54.90;;;;;;5077438;28;20627;-82
2021/07/04 06:29:56;;;;;;;8.93;7.68;;;23.60;54.90;;;;;;5092960;28;20226;-84
2021/07/04 06:32:23;;;;;;;8.63;7.47;;;23.60;54.80;;;;;;5093066;28;20180;-84
2021/07/04 06:34:50;;;;;;;9.35;8.25;;;23.60;54.90;;;;;;5093224;28;20295;-85
2021/07/04 06:37:17;;;;;;;8.82;7.22;;;23.60;54.80;;;;;;5110227;28;20182;-81
2021/07/04 06:39:43;;;;;;;8.40;7.60;;;23.70;54.70;;;;;;5076315;28;20226;-83
2021/07/04 06:42:09;;;;;;;9.25;8.15;;;23.70;54.60;;;;;;5094964;28;20161;-83
2021/07/04 06:44:36;;;;;;;8.77;7.88;;;23.70;54.60;;;;;;5093682;28;20183;-81
2021/07/04 06:47:03;;;;;;;8.82;7.93;;;23.70;54.60;;;;;;5093935;28;20156;-83
2021/07/04 06:49:29;;;;;;;8.27;7.47;;;23.60;54.50;;;;;;5076546;28;20169;-82
2021/07/04 06:51:54;;;;;;;8.90;8.00;;;23.80;54.40;;;;;;5093626;28;20149;-82
2021/07/04 06:54:20;;;;;;;9.48;8.48;;;23.80;54.50;;;;;;5093268;28;20292;-83
2021/07/04 06:56:46;;;;;;;9.48;8.23;;;23.80;54.60;;;;;;5093470;28;20203;-84
2021/07/04 06:59:12;;;;;;;8.38;7.57;;;23.70;54.60;;;;;;5076897;28;20165;-83
2021/07/04 07:01:39;;;;;;;8.98;8.02;;;23.70;54.50;;;;;;5075611;28;20184;-83
2021/07/04 07:04:06;;;;;;;8.43;7.55;;;23.70;54.70;;;;;;5110124;28;20525;-83
2021/07/04 07:06:32;;;;;;;8.23;7.43;;;23.70;54.60;;;;;;5076395;28;20157;-84
2021/07/04 07:08:58;;;;;;;8.80;7.90;;;23.70;54.60;;;;;;5094724;28;20180;-82
2021/07/04 07:11:24;;;;;;;9.20;8.13;;;23.60;54.60;;;;;;5093242;28;20247;-84
2021/07/04 07:13:50;;;;;;;9.07;8.18;;;23.70;54.70;;;;;;5094267;28;20683;-83
2021/07/04 07:16:16;;;;;;;9.45;8.40;;;23.70;54.60;;;;;;5093148;28;20283;-81
2021/07/04 07:18:43;;;;;;;8.80;7.90;;;23.70;54.70;;;;;;5094313;28;20578;-82
2021/07/04 07:21:08;;;;;;;8.88;8.05;;;23.60;54.90;;;;;;5094321;28;20231;-82
2021/07/04 07:23:34;;;;;;;8.65;7.75;;;23.70;54.70;;;;;;5076366;28;20579;-84
2021/07/04 07:25:59;;;;;;;9.10;7.88;;;23.60;54.90;;;;;;5094131;28;20164;-82
2021/07/04 07:28:25;;;;;;;8.45;7.65;;;23.60;54.70;;;;;;5092782;28;20515;-83
2021/07/04 07:30:51;;;;;;;8.63;7.78;;;23.70;54.70;;;;;;5075911;28;20152;-82
2021/07/04 07:33:17;;;;;;;8.27;7.47;;;23.70;54.80;;;;;;5092880;28;20243;-83
2021/07/04 07:35:43;;;;;;;8.27;7.43;;;23.80;54.40;;;;;;5092719;28;20187;-82
2021/07/04 07:38:10;;;;;;;8.10;7.30;;;23.80;54.40;;;;;;5093967;28;20161;-85
2021/07/04 07:40:36;;;;;;;8.30;7.47;;;23.90;54.20;;;;;;5076294;28;20161;-80
2021/07/04 07:43:03;;;;;;;8.38;7.57;;;23.90;54.20;;;;;;5092974;28;20164;-83
2021/07/04 07:45:29;;;;;;;8.50;7.70;;;23.80;54.20;;;;;;5092569;28;20156;-83
2021/07/04 07:47:55;;;;;;;8.32;7.53;;;23.80;54.30;;;;;;5092590;28;20244;-84
2021/07/04 07:50:20;;;;;;;8.93;8.02;;;23.80;54.20;;;;;;5092675;28;20168;-83
2021/07/04 07:52:46;;;;;;;8.55;7.70;;;23.70;54.50;;;;;;5075439;28;20667;-83
2021/07/04 07:55:12;;;;;;;8.45;7.40;;;23.80;54.60;;;;;;5092461;28;20196;-83
2021/07/04 07:57:38;;;;;;;8.57;7.72;;;23.90;54.20;;;;;;5075689;28;20637;-83
2021/07/04 08:00:05;;;;;;;9.48;7.88;;;23.70;54.30;;;;;;5092613;28;20169;-83
2021/07/04 08:02:30;;;;;;;8.90;8.00;;;23.80;54.50;;;;;;5092238;28;20165;-81
2021/07/04 08:04:58;;;;;;;8.13;7.32;;;23.80;54.60;;;;;;5092284;28;20642;-82
2021/07/04 08:07:23;;;;;;;8.65;7.78;;;23.80;54.40;;;;;;5075635;28;20177;-83
2021/07/04 08:09:49;;;;;;;8.63;7.72;;;23.80;54.40;;;;;;5075414;28;20183;-83
2021/07/04 08:12:15;;;;;;;8.60;7.70;;;23.90;54.20;;;;;;5092261;28;20153;-84
2021/07/04 08:14:41;;;;;;;8.55;7.65;;;23.90;54.20;;;;;;5091275;28;20279;-83
2021/07/04 08:17:07;;;;;;;7.95;7.15;;;23.90;54.20;;;;;;5092284;28;20153;-81
2021/07/04 08:19:33;;;;;;;8.50;7.65;;;23.90;54.20;;;;;;5075825;28;20688;-83
2021/07/04 08:21:59;;;;;;;8.65;7.75;;;23.90;54.30;;;;;;5075440;28;20160;-84
2021/07/04 08:24:25;;;;;;;8.57;7.68;;;23.70;54.60;;;;;;5092041;28;20157;-84
2021/07/04 08:26:50;;;;;;;8.07;7.28;;;23.60;54.80;;;;;;5093509;28;20234;-83
2021/07/04 08:29:16;;;;;;;9.00;7.80;;;23.50;55.10;;;;;;5092085;28;20580;-82
2021/07/04 08:31:42;;;;;;;8.07;7.28;;;23.50;55.20;;;;;;5075193;28;20172;-83
2021/07/04 08:34:07;;;;;;;8.30;7.40;;;23.40;55.10;;;;;;5075045;28;20172;-81
2021/07/04 08:36:33;;;;;;;9.07;8.05;;;23.50;55.20;;;;;;5075164;28;20575;-81
2021/07/04 08:38:59;;;;;;;8.90;7.80;;;23.60;55.20;;;;;;5091851;28;20255;-82
2021/07/04 08:41:25;;;;;;;8.88;7.93;;;23.50;55.10;;;;;;5109117;28;20161;-83
2021/07/04 08:43:52;;;;;;;8.60;7.70;;;23.50;55.20;;;;;;5091753;28;20165;-82
2021/07/04 08:46:19;;;;;;;8.65;7.82;;;23.40;55.20;;;;;;5091860;28;20179;-84
2021/07/04 08:48:45;;;;;;;8.25;7.45;;;23.50;55.20;;;;;;5093074;28;20157;-84
2021/07/04 08:51:12;;;;;;;8.65;7.85;;;23.50;55.20;;;;;;5093046;28;20158;-83
2021/07/04 08:53:38;;;;;;;8.73;7.60;;;23.40;55.10;;;;;;5091785;28;20220;-85
2021/07/04 08:56:04;;;;;;;8.90;8.00;;;23.40;55.20;;;;;;5075273;28;20254;-83
2021/07/04 08:58:30;;;;;;;8.73;7.80;;;23.40;55.20;;;;;;5091870;28;20153;-84
2021/07/04 09:01:18;;;;;;;8.95;8.05;;;23.50;55.20;;;;;;5092159;28;20615;-82
2021/07/04 09:03:48;;;;;;;8.25;7.45;;;23.50;55.10;;;;;;5091835;28;20638;-84
2021/07/04 09:06:14;;;;;;;8.40;7.60;;;23.60;55.00;;;;;;5091712;28;20149;-82
2021/07/04 09:08:40;;;;;;;8.85;7.95;;;23.50;55.00;;;;;;5092030;28;20149;-84
2021/07/04 09:11:20;;;;;;;8.80;7.90;;;23.50;55.10;;;;;;5091669;28;20169;-84
2021/07/04 09:13:47;;;;;;;8.75;7.85;;;23.50;55.10;;;;;;5092762;28;20177;-83
2021/07/04 09:16:17;;;;;;;8.00;7.20;;;23.40;55.10;;;;;;5074480;28;20193;-83
2021/07/04 09:18:43;;;;;;;9.77;8.00;;;23.50;55.20;;;;;;5091562;28;20612;-81
2021/07/04 09:21:19;;;;;;;9.20;7.50;;;23.50;55.10;;;;;;5091579;28;20160;-82
2021/07/04 09:23:45;;;;;;;8.23;7.40;;;23.40;55.00;;;;;;5092766;28;20160;-81
2021/07/04 09:26:42;;;;;;;8.75;7.85;;;23.50;55.10;;;;;;5095183;28;20157;-81
2021/07/04 09:29:09;;;;;;;8.57;7.70;;;23.50;55.10;;;;;;5095374;28;20620;-83
2021/07/04 09:31:35;;;;;;;7.97;7.18;;;23.50;55.00;;;;;;5095127;28;20196;-82
2021/07/04 09:34:03;;;;;;;8.13;7.32;;;23.40;55.10;;;;;;5095214;28;20659;-82
2021/07/04 09:36:28;;;;;;;8.43;7.53;;;23.40;55.20;;;;;;5095537;28;20185;-82
2021/07/04 09:38:54;;;;;;;8.65;7.57;;;23.40;55.10;;;;;;5078810;28;20168;-82
2021/07/04 09:41:21;;;;;;;8.23;7.43;;;23.40;55.10;;;;;;5095115;28;20161;-83
2021/07/04 09:43:48;;;;;;;10.23;8.10;;;23.30;55.00;;;;;;5094001;28;20191;-83
2021/07/04 09:46:16;;;;;;;8.10;7.25;;;23.30;55.00;;;;;;5110781;28;20187;-82
2021/07/04 09:48:49;;;;;;;9.05;8.15;;;23.30;54.60;;;;;;5094182;28;20177;-83
2021/07/04 09:51:22;;;;;;;9.05;8.10;;;23.30;55.00;;;;;;5094171;28;20268;-82
2021/07/04 09:53:53;;;;;;;9.10;8.20;;;23.50;55.10;;;;;;5060623;28;20220;-82
2021/07/04 09:56:23;;;;;;;8.00;7.20;;;23.40;54.80;;;;;;5078161;28;20303;-82
2021/07/04 09:58:53;;;;;;;7.97;7.18;;;23.40;54.70;;;;;;5060466;28;20179;-82
2021/07/04 10:01:45;;;;;;;7.72;7.03;;;23.40;55.60;;;;;;5094417;28;20172;-82
2021/07/04 10:04:28;;;;;;;8.15;7.35;;;23.30;55.10;;;;;;5094195;28;20172;-82
2021/07/04 10:06:55;;;;;;;8.25;7.22;;;23.30;54.90;;;;;;5094589;28;20167;-82
2021/07/04 10:09:25;;;;;;;8.55;7.65;;;23.30;55.10;;;;;;5110798;27;20177;-82
2021/07/04 10:11:53;;;;;;;8.50;7.63;;;23.40;55.30;;;;;;5077534;28;20189;-82
2021/07/04 10:14:19;;;;;;;8.65;7.72;;;23.30;55.30;;;;;;5093492;28;20666;-82
2021/07/04 10:16:45;;;;;;;8.25;7.45;;;23.30;55.10;;;;;;5077089;28;20252;-82
2021/07/04 10:19:15;;;;;;;8.50;7.57;;;23.30;55.10;;;;;;5077197;28;20161;-82
2021/07/04 10:21:41;;;;;;;8.60;7.63;;;23.30;55.10;;;;;;5094121;28;20152;-82
2021/07/04 10:24:07;;;;;;;8.63;7.75;;;23.30;55.50;;;;;;5077121;28;20160;-83
2021/07/04 10:26:36;;;;;;;8.70;7.80;;;23.30;55.20;;;;;;5077330;28;20160;-83
2021/07/04 10:29:04;;;;;;;8.73;7.82;;;23.30;55.30;;;;;;5093891;28;20169;-83
2021/07/04 10:31:31;;;;;;;9.00;8.00;;;23.30;55.00;;;;;;5093899;28;20174;-82
2021/07/04 10:34:08;;;;;;;8.27;7.47;;;23.30;55.30;;;;;;5093808;28;20523;-82
2021/07/04 10:36:58;;;;;;;8.65;7.75;;;23.20;55.20;;;;;;5093085;28;20160;-82
2021/07/04 10:39:25;;;;;;;8.63;7.65;;;23.20;55.30;;;;;;5094862;28;20149;-82
2021/07/04 10:41:58;;;;;;;8.93;7.85;;;23.30;55.60;;;;;;5110958;28;20153;-82
2021/07/04 10:44:40;;;;;;;8.60;7.70;;;23.30;55.50;;;;;;5093905;28;20171;-82
2021/07/04 10:47:08;;;;;;;7.85;7.05;;;23.30;55.60;;;;;;5093630;28;20244;-82
2021/07/04 10:49:39;;;;;;;8.35;7.55;;;23.30;55.70;;;;;;5077102;28;20161;-83
2021/07/04 10:52:18;;;;;;;8.77;7.88;;;23.40;55.80;;;;;;5093558;28;20604;-82
2021/07/04 10:54:46;;;;;;;9.30;8.40;;;23.20;55.80;;;;;;5093741;28;20235;-81
2021/07/04 10:57:21;;;;;;;9.10;8.20;;;23.20;55.80;;;;;;5093529;28;20145;-82
2021/07/04 10:59:50;;;;;;;8.20;7.40;;;23.30;55.80;;;;;;5076636;28;20160;-82
2021/07/04 11:02:50;;;;;;;8.20;7.32;;;23.30;55.80;;;;;;5110703;27;20635;-82
2021/07/04 11:05:17;;;;;;;8.60;7.60;;;23.30;55.70;;;;;;5094705;28;20188;-82
2021/07/04 11:08:03;;;;;;;8.57;7.47;;;23.30;55.70;;;;;;5093552;28;20157;-82
2021/07/04 11:10:35;;;;;;;8.45;7.57;;;23.30;55.50;;;;;;5093629;28;20168;-82
2021/07/04 11:13:25;;;;;;;8.35;7.55;;;23.30;55.50;;;;;;5093302;28;20586;-81
2021/07/04 11:16:04;;;;;;;8.02;7.22;;;23.50;55.30;;;;;;5093183;28;20188;-82
2021/07/04 11:18:40;;;;;;;9.20;8.30;;;23.60;55.20;;;;;;5076239;28;20161;-83
2021/07/04 11:21:06;;;;;;;8.30;7.50;;;23.60;55.10;;;;;;5092929;28;20153;-82
2021/07/04 11:23:31;;;;;;;8.77;7.95;;;23.50;55.10;;;;;;5093197;28;20267;-82
2021/07/04 11:25:59;;;;;;;8.18;7.38;;;23.40;55.10;;;;;;5093088;28;20202;-82
2021/07/04 11:28:31;;;;;;;8.38;7.57;;;23.50;55.20;;;;;;5075828;28;20156;-83
2021/07/04 11:31:22;;;;;;;8.45;7.55;;;23.50;55.20;;;;;;5076623;28;20650;-81
2021/07/04 11:33:50;;;;;;;8.88;7.97;;;23.60;55.30;;;;;;5093244;28;20149;-82
2021/07/04 11:36:23;;;;;;;9.02;8.13;;;23.50;55.30;;;;;;5092917;28;20643;-82
2021/07/04 11:38:52;;;;;;;8.85;7.95;;;23.50;55.40;;;;;;5076962;28;20168;-83
2021/07/04 11:41:21;;;;;;;9.25;8.20;;;23.50;55.40;;;;;;5076239;28;20157;-83
2021/07/04 11:43:47;;;;;;;8.90;7.97;;;23.50;55.40;;;;;;5092625;28;20141;-81
2021/07/04 11:46:15;;;;;;;9.18;8.25;;;23.50;55.50;;;;;;5092531;28;20179;-82
2021/07/04 11:48:44;;;;;;;9.57;8.20;;;23.50;55.50;;;;;;5091999;28;20286;-83
2021/07/04 11:51:11;;;;;;;9.40;8.13;;;23.40;55.40;;;;;;5093999;28;20145;-80
2021/07/04 11:53:47;;;;;;;8.75;7.78;;;23.50;55.50;;;;;;5093711;28;20222;-82
2021/07/04 11:56:14;;;;;;;8.80;7.90;;;23.60;55.40;;;;;;5092702;28;20188;-83
2021/07/04 11:58:39;;;;;;;9.20;8.30;;;23.50;55.30;;;;;;5092413;28;20145;-84
2021/07/04 12:01:16;;;;;;;8.77;7.88;;;23.60;55.40;;;;;;5093596;28;20223;-82
2021/07/04 12:03:42;;;;;;;8.70;7.80;;;23.50;55.40;;;;;;5076079;28;20160;-84
2021/07/04 12:06:08;;;;;;;8.63;7.72;;;23.50;55.40;;;;;;5093572;28;20197;-83
2021/07/04 12:08:56;;;;;;;8.65;7.72;;;23.60;55.50;;;;;;5093791;28;20153;-81
2021/07/04 12:11:41;;;;;;;8.40;7.60;;;23.50;55.50;;;;;;5126320;27;20244;-82
2021/07/04 12:14:24;;;;;;;8.57;7.55;;;23.50;55.50;;;;;;5093445;28;20177;-82
2021/07/04 12:16:51;;;;;;;8.50;7.60;;;23.50;55.50;;;;;;5092118;28;20161;-83
2021/07/04 12:19:29;;;;;;;9.10;8.20;;;23.60;55.50;;;;;;5092050;28;20161;-82
2021/07/04 12:21:56;;;;;;;8.75;7.38;;;23.60;55.30;;;;;;5092117;28;20153;-84
2021/07/04 12:24:31;;;;;;;8.00;7.20;;;23.60;55.30;;;;;;5092168;28;20149;-80
2021/07/04 12:26:57;;;;;;;8.43;7.55;;;23.60;55.30;;;;;;5093347;28;20246;-82
2021/07/04 12:29:23;;;;;;;8.63;7.57;;;23.60;55.30;;;;;;5075255;28;20600;-81
2021/07/04 12:32:00;;;;;;;8.63;7.70;;;23.60;55.40;;;;;;5093200;28;20236;-82
2021/07/04 12:34:26;;;;;;;9.20;8.30;;;23.60;55.40;;;;;;5075546;28;20169;-85
2021/07/04 12:36:52;;;;;;;8.35;7.55;;;23.60;55.30;;;;;;5093268;28;20630;-81
2021/07/04 12:39:18;;;;;;;8.43;7.63;;;23.60;55.30;;;;;;5075112;28;20225;-81
2021/07/04 12:41:44;;;;;;;8.90;8.00;;;23.60;55.30;;;;;;5091936;28;20149;-81
2021/07/04 12:44:13;;;;;;;8.50;7.65;;;23.60;55.30;;;;;;5091979;28;20151;-84
2021/07/04 12:46:41;;;;;;;8.57;7.78;;;23.60;55.30;;;;;;5091851;28;20608;-83
2021/07/04 12:49:14;;;;;;;9.10;8.20;;;23.60;55.30;;;;;;5091244;28;20183;-81
2021/07/04 12:51:45;;;;;;;8.43;7.63;;;23.60;55.30;;;;;;5074319;28;20176;-83